createdAt,value
2018-10-12T00:01:18.212Z,25.13
2018-10-12T00:03:46.206Z,15.43
2018-10-12T00:06:14.035Z,31.63
2018-10-12T00:08:42.620Z,20.13
2018-10-12T00:11:11.496Z,24.80
2018-10-12T00:13:39.341Z,21.43
2018-10-12T00:16:07.308Z,19.57
2018-10-12T00:18:35.174Z,17.17
2018-10-12T00:21:02.987Z,14.03
2018-10-12T00:23:30.885Z,11.17
2018-10-12T00:25:58.945Z,9.73
2018-10-12T00:28:26.771Z,4.90
2018-10-12T00:30:54.676Z,7.97
2018-10-12T00:33:22.516Z,10.27
2018-10-12T00:35:50.332Z,9.43
2018-10-12T00:38:18.145Z,12.07
2018-10-12T00:40:46.023Z,6.77
2018-10-12T00:43:13.860Z,4.73
2018-10-12T00:45:41.678Z,8.00
2018-10-12T00:48:09.552Z,5.57
2018-10-12T00:50:37.342Z,4.27
2018-10-12T00:53:05.283Z,5.27
2018-10-12T00:55:34.089Z,5.60
2018-10-12T00:58:01.947Z,5.70
2018-10-12T01:00:29.849Z,4.90
2018-10-12T01:02:57.816Z,7.63
2018-10-12T01:05:25.820Z,6.57
2018-10-12T01:07:53.845Z,6.80
2018-10-12T01:10:21.701Z,5.53
2018-10-12T01:12:49.574Z,6.07
2018-10-12T01:15:17.377Z,8.33
2018-10-12T01:17:45.256Z,7.23
2018-10-12T01:20:13.160Z,8.27
2018-10-12T01:22:41.066Z,8.07
2018-10-12T01:25:09.344Z,11.70
2018-10-12T01:27:37.288Z,10.37
2018-10-12T01:30:06.144Z,11.40
2018-10-12T01:32:39.502Z,11.40
2018-10-12T01:35:07.413Z,15.50
2018-10-12T01:37:35.345Z,14.53
2018-10-12T01:40:03.247Z,18.07
2018-10-12T01:42:31.181Z,25.30
2018-10-12T01:44:58.977Z,21.97
2018-10-12T01:47:26.872Z,22.70
2018-10-12T01:49:54.850Z,24.53
2018-10-12T01:52:22.690Z,19.83
2018-10-12T01:54:50.600Z,26.10
2018-10-12T01:57:18.523Z,23.83
2018-10-12T01:59:46.412Z,23.17
2018-10-12T02:02:14.313Z,21.80
2018-10-12T02:04:42.173Z,20.17
2018-10-12T02:07:09.997Z,31.37
2018-10-12T02:09:37.847Z,31.97
2018-10-12T02:12:05.746Z,27.80
2018-10-12T02:14:33.554Z,32.03
2018-10-12T02:17:01.424Z,34.03
2018-10-12T02:19:29.241Z,37.93
2018-10-12T02:21:57.034Z,29.77
2018-10-12T02:24:24.919Z,34.33
2018-10-12T02:26:52.809Z,22.67
2018-10-12T02:29:20.616Z,22.83
2018-10-12T02:31:48.419Z,22.10
2018-10-12T02:34:16.235Z,33.97
2018-10-12T02:36:44.087Z,28.43
2018-10-12T02:39:14.310Z,29.27
2018-10-12T02:41:42.148Z,36.47
2018-10-12T02:44:10.504Z,31.67
2018-10-12T02:46:38.384Z,33.63
2018-10-12T02:49:06.690Z,35.73
2018-10-12T02:51:34.497Z,38.33
2018-10-12T02:54:02.344Z,36.47
2018-10-12T02:56:30.141Z,39.17
2018-10-12T02:58:57.956Z,33.17
2018-10-12T03:01:25.816Z,28.90
2018-10-12T03:03:53.686Z,33.37
2018-10-12T03:06:22.496Z,29.77
2018-10-12T03:08:50.407Z,37.17
2018-10-12T03:11:18.224Z,33.23
2018-10-12T03:13:46.065Z,34.97
2018-10-12T03:16:14.326Z,30.67
2018-10-12T03:18:42.629Z,40.93
2018-10-12T03:21:10.513Z,41.40
2018-10-12T03:23:38.342Z,35.37
2018-10-12T03:26:06.137Z,35.17
2018-10-12T03:28:35.414Z,37.17
2018-10-12T03:31:03.930Z,50.67
2018-10-12T03:33:32.339Z,42.80
2018-10-12T03:36:00.835Z,44.77
2018-10-12T03:38:28.842Z,54.77
2018-10-12T03:40:57.175Z,65.97
2018-10-12T03:43:25.103Z,48.27
2018-10-12T03:45:52.966Z,42.43
2018-10-12T03:48:20.832Z,36.23
2018-10-12T03:50:48.782Z,56.47
2018-10-12T03:53:17.205Z,56.47
2018-10-12T03:55:45.272Z,49.17
2018-10-12T03:58:13.640Z,36.70
2018-10-12T04:00:42.255Z,38.93
2018-10-12T04:03:10.147Z,30.50
2018-10-12T04:05:38.017Z,34.40
2018-10-12T04:08:05.943Z,35.07
2018-10-12T04:10:33.925Z,42.07
2018-10-12T04:13:01.723Z,28.70
2018-10-12T04:15:30.705Z,28.03
2018-10-12T04:17:58.543Z,30.87
2018-10-12T04:20:26.400Z,29.27
2018-10-12T04:22:54.787Z,27.77
2018-10-12T04:25:23.581Z,34.97
2018-10-12T04:27:51.446Z,36.27
2018-10-12T04:30:19.542Z,29.87
2018-10-12T04:32:47.365Z,25.37
2018-10-12T04:35:15.845Z,20.60
2018-10-12T04:37:43.813Z,27.43
2018-10-12T04:41:27.785Z,26.43
2018-10-12T04:43:58.109Z,26.50
2018-10-12T04:46:29.613Z,26.63
2018-10-12T04:48:57.800Z,35.93
2018-10-12T04:51:30.258Z,26.37
2018-10-12T04:53:58.294Z,27.67
2018-10-12T04:56:26.872Z,31.83
2018-10-12T04:58:54.999Z,33.90
2018-10-12T05:01:23.109Z,43.00
2018-10-12T05:03:50.993Z,34.27
2018-10-12T05:06:19.971Z,37.53
2018-10-12T05:08:47.773Z,45.20
2018-10-12T05:11:15.635Z,28.37
2018-10-12T05:13:44.941Z,36.27
2018-10-12T05:16:12.979Z,46.07
2018-10-12T05:18:40.840Z,48.07
2018-10-12T05:21:10.208Z,52.57
2018-10-12T05:23:38.105Z,57.33
2018-10-12T05:26:06.829Z,68.77
2018-10-12T05:28:36.807Z,60.90
2018-10-12T05:31:04.683Z,75.00
2018-10-12T05:33:33.126Z,68.57
2018-10-12T05:36:01.146Z,73.20
2018-10-12T05:38:30.372Z,73.87
2018-10-12T05:40:59.353Z,71.87
2018-10-12T05:43:27.381Z,66.33
2018-10-12T05:45:55.547Z,76.03
2018-10-12T05:48:34.476Z,76.27
2018-10-12T05:51:03.546Z,68.33
2018-10-12T05:53:33.844Z,89.93
2018-10-12T05:56:02.155Z,78.60
2018-10-12T05:58:30.875Z,82.13
2018-10-12T06:00:58.953Z,90.97
2018-10-12T06:03:27.087Z,78.87
2018-10-12T06:05:55.484Z,99.73
2018-10-12T06:08:24.455Z,96.20
2018-10-12T06:10:52.628Z,78.73
2018-10-12T06:13:21.206Z,100.63
2018-10-12T06:15:49.833Z,83.00
2018-10-12T06:18:17.848Z,91.70
2018-10-12T06:20:45.800Z,96.03
2018-10-12T06:23:13.776Z,75.33
2018-10-12T06:25:41.901Z,117.40
2018-10-12T06:28:09.780Z,89.13
2018-10-12T06:30:37.648Z,97.90
2018-10-12T06:33:05.515Z,82.77
2018-10-12T06:35:34.487Z,87.03
2018-10-12T06:38:02.549Z,86.87
2018-10-12T06:40:34.373Z,61.10
2018-10-12T06:43:06.215Z,79.60
2018-10-12T06:45:34.260Z,80.30
2018-10-12T06:48:02.165Z,66.07
2018-10-12T06:50:30.137Z,76.83
2018-10-12T06:52:58.745Z,78.47
2018-10-12T06:55:27.007Z,81.70
2018-10-12T06:57:55.476Z,87.23
2018-10-12T07:00:24.074Z,86.03
2018-10-12T07:02:52.372Z,86.07
2018-10-12T07:05:20.585Z,81.53
2018-10-12T07:07:48.630Z,88.73
2018-10-12T07:10:16.719Z,99.73
2018-10-12T07:12:44.725Z,100.33
2018-10-12T07:15:12.763Z,130.40
2018-10-12T07:17:41.424Z,125.83
2018-10-12T07:20:09.529Z,115.93
2018-10-12T07:22:37.367Z,100.50
2018-10-12T07:25:05.411Z,109.63
2018-10-12T07:27:33.367Z,106.03
2018-10-12T07:30:02.360Z,99.60
2018-10-12T07:32:30.355Z,107.80
2018-10-12T07:34:58.423Z,84.53
2018-10-12T07:37:27.560Z,83.73
2018-10-12T07:39:55.569Z,103.40
2018-10-12T07:42:23.611Z,101.60
2018-10-12T07:44:52.444Z,103.10
2018-10-12T07:47:20.352Z,74.77
2018-10-12T07:49:48.288Z,103.17
2018-10-12T07:52:16.743Z,94.90
2018-10-12T07:54:45.383Z,127.13
2018-10-12T07:57:14.645Z,116.63
2018-10-12T07:59:43.542Z,96.70
2018-10-12T08:02:12.262Z,90.70
2018-10-12T08:04:41.344Z,82.20
2018-10-12T08:07:09.860Z,77.07
2018-10-12T08:09:38.355Z,76.10
2018-10-12T08:12:07.434Z,68.27
2018-10-12T08:14:35.643Z,84.63
2018-10-12T08:17:04.768Z,70.10
2018-10-12T08:19:33.333Z,102.33
2018-10-12T08:22:02.394Z,69.70
2018-10-12T08:24:30.479Z,61.40
2018-10-12T08:26:58.772Z,69.07
2018-10-12T08:29:27.644Z,91.67
2018-10-12T08:31:55.747Z,72.37
2018-10-12T08:34:24.801Z,66.17
2018-10-12T08:36:53.450Z,86.00
2018-10-12T08:39:21.581Z,90.80
2018-10-12T08:41:49.865Z,61.97
2018-10-12T08:44:17.970Z,73.67
2018-10-12T08:46:46.138Z,59.33
2018-10-12T08:49:14.532Z,79.27
2018-10-12T08:51:42.613Z,75.80
2018-10-12T08:54:10.578Z,68.87
2018-10-12T08:56:38.789Z,85.70
2018-10-12T08:59:06.912Z,66.37
2018-10-12T09:01:34.762Z,41.77
2018-10-12T09:04:04.389Z,45.83
2018-10-12T09:06:32.262Z,45.53
2018-10-12T09:09:01.125Z,50.87
2018-10-12T09:11:29.109Z,57.50
2018-10-12T09:13:57.576Z,61.93
2018-10-12T09:16:25.610Z,57.23
2018-10-12T09:18:53.617Z,50.67
2018-10-12T09:21:21.541Z,46.97
2018-10-12T09:23:49.530Z,45.57
2018-10-12T09:26:17.393Z,60.73
2018-10-12T09:28:45.330Z,49.63
2018-10-12T09:31:13.372Z,55.83
2018-10-12T09:33:41.338Z,62.80
2018-10-12T09:36:09.124Z,58.67
2018-10-12T09:38:37.100Z,57.33
2018-10-12T09:41:04.952Z,55.47
2018-10-12T09:43:32.772Z,49.03
2018-10-12T09:46:00.770Z,64.10
2018-10-12T09:48:28.748Z,64.90
2018-10-12T09:50:56.693Z,64.17
2018-10-12T09:53:24.693Z,53.77
2018-10-12T09:55:53.362Z,55.87
2018-10-12T09:58:21.266Z,54.07
2018-10-12T10:00:54.678Z,48.33
2018-10-12T10:03:28.559Z,56.70
2018-10-12T10:05:56.409Z,50.67
2018-10-12T10:08:25.389Z,38.10
2018-10-12T10:10:53.312Z,36.93
2018-10-12T10:13:21.301Z,36.90
2018-10-12T10:15:49.239Z,40.47
2018-10-12T10:18:17.233Z,32.53
2018-10-12T10:20:45.167Z,36.70
2018-10-12T10:23:13.023Z,40.90
2018-10-12T10:25:40.826Z,41.27
2018-10-12T10:28:08.590Z,43.13
2018-10-12T10:30:36.460Z,41.10
2018-10-12T10:33:04.406Z,43.37
2018-10-12T10:35:32.365Z,40.50
2018-10-12T10:38:00.248Z,40.87
2018-10-12T10:40:28.157Z,43.07
2018-10-12T10:42:56.068Z,39.03
2018-10-12T10:45:24.165Z,45.53
2018-10-12T10:47:52.028Z,45.27
2018-10-12T10:50:19.849Z,44.00
2018-10-12T10:52:47.874Z,37.67
2018-10-12T10:55:15.846Z,41.13
2018-10-12T10:57:43.724Z,42.33
2018-10-12T11:00:12.605Z,36.83
2018-10-12T11:02:40.606Z,34.83
2018-10-12T11:05:09.814Z,38.40
2018-10-12T11:07:38.055Z,34.27
2018-10-12T11:10:06.151Z,33.33
2018-10-12T11:12:34.116Z,36.13
2018-10-12T11:15:02.156Z,38.70
2018-10-12T11:17:29.999Z,34.13
2018-10-12T11:19:58.844Z,34.37
2018-10-12T11:22:26.910Z,35.60
2018-10-12T11:24:54.760Z,36.23
2018-10-12T11:27:22.737Z,36.00
2018-10-12T11:29:50.803Z,31.10
2018-10-12T11:32:18.842Z,34.17
2018-10-12T11:34:47.853Z,39.97
2018-10-12T11:37:15.923Z,36.83
2018-10-12T11:39:44.049Z,28.10
2018-10-12T11:42:11.996Z,31.03
2018-10-12T11:44:39.940Z,36.07
2018-10-12T11:47:07.893Z,40.20
2018-10-12T11:49:35.915Z,40.13
2018-10-12T11:52:04.195Z,33.47
2018-10-12T11:54:32.365Z,39.57
2018-10-12T11:57:00.250Z,37.80
2018-10-12T11:59:28.274Z,39.13
2018-10-12T12:01:56.191Z,43.27
2018-10-12T12:04:24.147Z,44.67
2018-10-12T12:06:52.658Z,48.57
2018-10-12T12:09:21.040Z,42.80
2018-10-12T12:11:49.121Z,40.10
2018-10-12T12:14:17.095Z,46.53
2018-10-12T12:16:45.162Z,46.60
2018-10-12T12:19:13.198Z,43.67
2018-10-12T12:21:41.208Z,47.53
2018-10-12T12:24:09.063Z,42.40
2018-10-12T12:26:36.948Z,50.50
2018-10-12T12:29:04.900Z,45.33
2018-10-12T12:31:32.904Z,42.07
2018-10-12T12:34:00.822Z,47.97
2018-10-12T12:36:28.769Z,47.40
2018-10-12T12:38:56.781Z,46.87
2018-10-12T12:41:25.524Z,42.40
2018-10-12T12:43:53.652Z,44.10
2018-10-12T12:46:21.844Z,44.43
2018-10-12T12:48:50.903Z,47.87
2018-10-12T12:51:20.143Z,50.47
2018-10-12T12:53:48.222Z,48.47
2018-10-12T12:56:16.189Z,52.33
2018-10-12T12:58:44.199Z,48.33
2018-10-12T13:01:12.116Z,55.00
2018-10-12T13:03:41.095Z,51.43
2018-10-12T13:06:09.095Z,49.30
2018-10-12T13:08:37.937Z,49.60
2018-10-12T13:11:05.757Z,51.80
2018-10-12T13:13:34.722Z,56.03
2018-10-12T13:16:03.502Z,57.80
2018-10-12T13:18:31.797Z,58.80
2018-10-12T13:20:59.873Z,56.57
2018-10-12T13:23:28.769Z,65.00
2018-10-12T13:25:57.078Z,64.17
2018-10-12T13:28:25.008Z,61.00
2018-10-12T13:30:53.494Z,77.27
2018-10-12T13:33:21.557Z,70.07
2018-10-12T13:35:50.519Z,65.07
2018-10-12T13:38:18.655Z,67.23
2018-10-12T13:40:46.565Z,77.47
2018-10-12T13:43:17.370Z,69.13
2018-10-12T13:45:47.642Z,70.20
2018-10-12T13:48:16.404Z,64.77
2018-10-12T13:50:45.864Z,67.27
2018-10-12T13:53:14.611Z,68.57
2018-10-12T13:55:42.429Z,64.47
2018-10-12T13:58:11.274Z,66.77
2018-10-12T14:00:39.182Z,60.33
2018-10-12T14:03:07.685Z,52.63
2018-10-12T14:05:35.592Z,66.40
2018-10-12T14:08:03.459Z,53.50
2018-10-12T14:10:31.356Z,58.90
2018-10-12T14:12:59.261Z,68.63
2018-10-12T14:15:27.130Z,56.70
2018-10-12T14:17:54.952Z,73.30
2018-10-12T14:20:22.741Z,66.90
2018-10-12T14:22:50.502Z,74.87
2018-10-12T14:25:18.269Z,92.80
2018-10-12T14:27:46.113Z,66.97
2018-10-12T14:30:13.862Z,53.70
2018-10-12T14:32:41.697Z,86.80
2018-10-12T14:35:09.513Z,61.40
2018-10-12T14:37:37.388Z,71.70
2018-10-12T14:40:05.199Z,70.77
2018-10-12T14:42:33.022Z,52.67
2018-10-12T14:45:00.864Z,73.53
2018-10-12T14:47:29.693Z,52.57
2018-10-12T14:49:57.447Z,58.40
2018-10-12T14:52:25.282Z,51.97
2018-10-12T14:54:53.071Z,45.83
2018-10-12T14:57:20.989Z,49.83
2018-10-12T14:59:50.138Z,48.13
2018-10-12T15:02:18.685Z,44.17
2018-10-12T15:04:46.462Z,39.13
2018-10-12T15:07:14.275Z,53.00
2018-10-12T15:09:42.056Z,36.03
2018-10-12T15:12:09.913Z,35.73
2018-10-12T15:15:43.520Z,36.47
2018-10-12T15:18:11.325Z,53.47
2018-10-12T15:20:39.096Z,37.50
2018-10-12T15:23:06.952Z,28.83
2018-10-12T15:25:34.754Z,31.03
2018-10-12T15:28:02.556Z,26.50
2018-10-12T15:30:30.336Z,30.00
2018-10-12T15:32:58.179Z,28.80
2018-10-12T15:35:25.978Z,23.97
2018-10-12T15:37:53.753Z,32.13
2018-10-12T15:40:21.663Z,32.03
2018-10-12T15:42:49.520Z,26.33
2018-10-12T15:45:17.344Z,34.87
2018-10-12T15:47:45.183Z,30.27
2018-10-12T15:50:12.953Z,37.03
2018-10-12T15:52:40.803Z,32.30
2018-10-12T15:55:08.656Z,25.37
2018-10-12T15:57:36.509Z,32.33
2018-10-12T16:00:04.572Z,29.90
2018-10-12T16:02:32.377Z,29.20
2018-10-12T16:05:00.243Z,31.70
2018-10-12T16:07:28.160Z,28.73
2018-10-12T16:09:55.936Z,35.10
2018-10-12T16:12:24.206Z,36.37
2018-10-12T16:14:52.624Z,26.43
2018-10-12T16:17:20.462Z,29.17
2018-10-12T16:19:48.258Z,28.40
2018-10-12T16:22:16.097Z,24.93
2018-10-12T16:26:51.626Z,31.07
2018-10-12T16:29:19.411Z,32.77
2018-10-12T16:31:47.240Z,41.80
2018-10-12T16:34:15.045Z,49.60
2018-10-12T16:36:42.897Z,44.37
2018-10-12T16:39:11.120Z,38.13
2018-10-12T16:41:42.470Z,43.33
2018-10-12T16:44:10.246Z,51.07
2018-10-12T16:46:38.223Z,45.07
2018-10-12T16:49:06.404Z,37.33
2018-10-12T16:51:34.136Z,50.00
2018-10-12T16:54:01.974Z,42.60
2018-10-12T16:56:29.780Z,65.60
2018-10-12T16:58:57.690Z,48.17
2018-10-12T17:01:25.500Z,53.53
2018-10-12T17:03:53.319Z,53.53
2018-10-12T17:06:21.140Z,45.07
2018-10-12T17:08:48.951Z,52.90
2018-10-12T17:11:16.885Z,59.33
2018-10-12T17:13:44.701Z,59.27
2018-10-12T17:16:12.445Z,38.40
2018-10-12T17:18:40.316Z,40.73
2018-10-12T17:21:08.706Z,68.93
2018-10-12T17:23:36.460Z,53.50
2018-10-12T17:26:04.312Z,40.23
2018-10-12T17:28:32.122Z,40.83
2018-10-12T17:30:59.886Z,45.60
2018-10-12T17:33:27.768Z,92.90
2018-10-12T17:35:55.542Z,49.43
2018-10-12T17:38:23.690Z,63.33
2018-10-12T17:40:51.601Z,91.07
2018-10-12T17:43:19.550Z,70.83
2018-10-12T17:45:47.457Z,67.27
2018-10-12T17:48:16.124Z,101.57
2018-10-12T17:50:43.955Z,61.40
2018-10-12T17:53:11.845Z,81.33
2018-10-12T17:55:39.773Z,74.47
2018-10-12T17:58:07.642Z,74.07
2018-10-12T18:00:35.748Z,46.53
2018-10-12T18:03:04.778Z,60.03
2018-10-12T18:05:32.560Z,43.87
2018-10-12T18:08:00.513Z,51.33
2018-10-12T18:10:28.446Z,71.43
2018-10-12T18:12:56.255Z,50.43
2018-10-12T18:15:24.291Z,51.47
2018-10-12T18:17:52.085Z,44.87
2018-10-12T18:20:20.071Z,55.80
2018-10-12T18:22:48.196Z,46.03
2018-10-12T18:25:15.958Z,50.47
2018-10-12T18:27:43.763Z,46.77
2018-10-12T18:30:11.556Z,41.43
2018-10-12T18:32:39.335Z,53.17
2018-10-12T18:35:07.103Z,43.53
2018-10-12T18:37:34.978Z,68.07
2018-10-12T18:40:02.766Z,62.93
2018-10-12T18:42:30.531Z,46.47
2018-10-12T18:44:58.345Z,33.70
2018-10-12T18:47:26.111Z,37.27
2018-10-12T18:49:53.897Z,40.53
2018-10-12T18:52:21.741Z,42.50
2018-10-12T18:54:49.501Z,45.67
2018-10-12T18:57:17.228Z,52.57
2018-10-12T18:59:45.110Z,49.40
2018-10-12T19:02:12.819Z,43.07
2018-10-12T19:04:40.726Z,40.57
2018-10-12T19:07:08.448Z,53.97
2018-10-12T19:09:36.226Z,56.83
2018-10-12T19:12:04.016Z,55.93
2018-10-12T19:14:31.806Z,51.47
2018-10-12T19:16:59.639Z,54.30
2018-10-12T19:19:27.440Z,40.83
2018-10-12T19:21:55.240Z,54.30
2018-10-12T19:24:23.007Z,74.60
2018-10-12T19:26:50.757Z,59.77
2018-10-12T19:29:18.481Z,78.27
2018-10-12T19:31:46.237Z,50.73
2018-10-12T19:34:14.014Z,52.60
2018-10-12T19:36:41.734Z,69.87
2018-10-12T19:39:09.880Z,49.70
2018-10-12T19:41:37.682Z,54.67
2018-10-12T19:44:05.716Z,46.63
2018-10-12T19:46:33.496Z,49.03
2018-10-12T19:49:01.274Z,69.47
2018-10-12T19:51:29.104Z,60.20
2018-10-12T19:53:56.893Z,48.20
2018-10-12T19:56:24.696Z,46.43
2018-10-12T19:58:56.032Z,51.63
2018-10-12T20:01:23.780Z,54.47
2018-10-12T20:03:51.541Z,48.17
2018-10-12T20:06:19.340Z,50.00
2018-10-12T20:08:47.145Z,58.43
2018-10-12T20:11:14.854Z,64.83
2018-10-12T20:13:42.617Z,67.50
2018-10-12T20:16:10.375Z,48.40
2018-10-12T20:18:38.130Z,51.33
2018-10-12T20:21:06.202Z,56.27
2018-10-12T20:23:33.984Z,51.87
2018-10-12T20:26:01.736Z,45.03
2018-10-12T20:28:29.579Z,54.10
2018-10-12T20:30:57.337Z,43.87
2018-10-12T20:33:25.056Z,68.63
2018-10-12T20:35:52.856Z,65.07
2018-10-12T20:38:20.614Z,59.63
2018-10-12T20:40:48.368Z,59.30
2018-10-12T20:43:16.165Z,53.57
2018-10-12T20:45:43.915Z,59.70
2018-10-12T20:48:11.718Z,54.47
2018-10-12T20:50:39.538Z,44.23
2018-10-12T20:53:07.263Z,54.80
2018-10-12T20:55:35.022Z,49.10
2018-10-12T20:58:02.805Z,111.03
2018-10-12T21:00:30.615Z,56.67
2018-10-12T21:02:58.331Z,57.17
2018-10-12T21:05:26.145Z,51.83
2018-10-12T21:07:53.863Z,62.80
2018-10-12T21:10:21.572Z,77.23
2018-10-12T21:12:49.350Z,65.37
2018-10-12T21:15:17.075Z,57.87
2018-10-12T21:17:44.895Z,50.10
2018-10-12T21:20:12.783Z,61.77
2018-10-12T21:22:40.493Z,78.03
2018-10-12T21:25:08.269Z,61.10
2018-10-12T21:27:36.022Z,57.27
2018-10-12T21:30:03.839Z,57.70
2018-10-12T21:32:31.641Z,60.07
2018-10-12T21:34:59.376Z,53.27
2018-10-12T21:37:27.109Z,47.87
2018-10-12T21:39:54.920Z,63.07
2018-10-12T21:42:22.704Z,63.07
2018-10-12T21:44:50.475Z,72.77
2018-10-12T21:47:18.230Z,77.20
2018-10-12T21:49:45.943Z,88.57
2018-10-12T21:52:13.722Z,58.77
2018-10-12T21:54:41.493Z,80.77
2018-10-12T21:57:09.264Z,56.70
2018-10-12T21:59:36.995Z,68.77
2018-10-12T22:02:04.793Z,63.40
2018-10-12T22:04:32.666Z,75.70
2018-10-12T22:07:00.422Z,93.33
2018-10-12T22:09:28.167Z,68.10
2018-10-12T22:11:55.935Z,82.63
2018-10-12T22:14:23.678Z,87.20
2018-10-12T22:16:51.385Z,100.83
2018-10-12T22:19:19.215Z,91.13
2018-10-12T22:21:47.011Z,95.97
2018-10-12T22:24:14.984Z,107.50
2018-10-12T22:26:42.754Z,113.13
2018-10-12T22:29:10.575Z,105.03
2018-10-12T22:31:38.484Z,95.20
2018-10-12T22:34:06.298Z,143.57
2018-10-12T22:36:34.140Z,137.00
2018-10-12T22:39:01.932Z,124.60
2018-10-12T22:41:29.795Z,105.00
2018-10-12T22:43:57.558Z,98.80
2018-10-12T22:46:25.264Z,104.70
2018-10-12T22:48:53.021Z,95.23
2018-10-12T22:51:20.757Z,112.20
2018-10-12T22:53:48.565Z,109.27
2018-10-12T22:56:16.360Z,94.07
2018-10-12T22:58:44.099Z,73.43
2018-10-12T23:01:11.882Z,127.13
2018-10-12T23:03:39.692Z,121.60
2018-10-12T23:06:07.464Z,147.50
2018-10-12T23:08:35.208Z,164.43
2018-10-12T23:11:03.035Z,148.33
2018-10-12T23:13:31.486Z,116.00
2018-10-12T23:15:59.224Z,84.07
2018-10-12T23:18:27.020Z,75.53
2018-10-12T23:20:55.356Z,109.23
2018-10-12T23:23:23.145Z,117.03
2018-10-12T23:25:50.881Z,81.40
2018-10-12T23:28:18.614Z,206.93
2018-10-12T23:30:46.459Z,75.87
2018-10-12T23:33:25.388Z,94.03
2018-10-12T23:35:53.176Z,84.93
2018-10-12T23:38:20.914Z,147.33
2018-10-12T23:40:48.652Z,107.53
2018-10-12T23:43:16.405Z,79.27
2018-10-12T23:45:44.173Z,108.87
2018-10-12T23:48:11.914Z,119.97
2018-10-12T23:50:39.649Z,295.47
2018-10-12T23:53:07.396Z,127.67
2018-10-12T23:55:35.203Z,222.37
2018-10-12T23:58:02.973Z,97.57
